createdAt,value
2018-12-18T00:00:50.620Z,2.00
2018-12-18T00:02:50.644Z,2.00
2018-12-18T00:04:49.992Z,1.98
2018-12-18T00:06:50.145Z,1.97
2018-12-18T00:08:50.213Z,1.96
2018-12-18T00:10:50.291Z,1.99
2018-12-18T00:12:49.909Z,1.99
2018-12-18T00:14:49.914Z,1.97
2018-12-18T00:16:50.108Z,1.96
2018-12-18T00:18:50.116Z,1.98
2018-12-18T00:20:50.140Z,1.97
2018-12-18T00:22:50.159Z,1.98
2018-12-18T00:24:50.143Z,1.96
2018-12-18T00:26:50.270Z,1.96
2018-12-18T00:28:50.254Z,1.94
2018-12-18T00:30:50.224Z,1.94
2018-12-18T00:32:50.202Z,1.93
2018-12-18T00:34:50.484Z,1.93
2018-12-18T00:36:50.574Z,1.91
2018-12-18T00:38:50.625Z,1.91
2018-12-18T00:40:50.660Z,1.91
2018-12-18T00:42:49.757Z,1.93
2018-12-18T00:44:49.842Z,1.94
2018-12-18T00:46:50.077Z,1.94
2018-12-18T00:48:50.130Z,1.96
2018-12-18T00:50:50.122Z,1.97
2018-12-18T00:52:50.181Z,2.00
2018-12-18T00:54:50.143Z,2.03
2018-12-18T00:56:50.286Z,2.06
2018-12-18T00:58:50.316Z,2.06
2018-12-18T01:00:50.324Z,2.11
2018-12-18T01:02:50.285Z,2.11
2018-12-18T01:04:49.786Z,2.11
2018-12-18T01:06:49.958Z,2.09
2018-12-18T01:08:50.023Z,2.09
2018-12-18T01:10:49.991Z,2.12
2018-12-18T01:12:49.982Z,2.16
2018-12-18T01:14:50.078Z,2.16
2018-12-18T01:16:50.260Z,2.15
2018-12-18T01:18:50.341Z,2.15
2018-12-18T01:20:50.336Z,2.19
2018-12-18T01:22:50.347Z,2.21
2018-12-18T01:24:50.326Z,2.24
2018-12-18T01:26:50.572Z,2.24
2018-12-18T01:28:50.477Z,2.23
2018-12-18T01:30:50.440Z,2.28
2018-12-18T01:32:50.458Z,2.29
2018-12-18T01:34:49.799Z,2.29
2018-12-18T01:36:50.158Z,2.33
2018-12-18T01:38:50.103Z,2.34
2018-12-18T01:40:50.004Z,2.38
2018-12-18T01:42:49.965Z,2.40
2018-12-18T01:44:50.029Z,2.41
2018-12-18T01:46:50.080Z,2.45
2018-12-18T01:48:50.051Z,2.48
2018-12-18T01:50:50.062Z,2.51
2018-12-18T01:52:50.091Z,2.53
2018-12-18T01:54:50.069Z,2.63
2018-12-18T01:56:50.255Z,2.73
2018-12-18T01:58:50.284Z,2.77
2018-12-18T02:00:50.311Z,2.80
2018-12-18T02:02:50.257Z,2.83
2018-12-18T02:04:49.770Z,2.84
2018-12-18T02:06:50.019Z,2.84
2018-12-18T02:08:49.973Z,2.84
2018-12-18T02:10:50.000Z,2.86
2018-12-18T02:12:49.984Z,2.88
2018-12-18T02:14:50.200Z,2.90
2018-12-18T02:16:50.540Z,2.92
2018-12-18T02:18:50.625Z,2.93
2018-12-18T02:20:50.662Z,2.95
2018-12-18T02:22:49.872Z,2.96
2018-12-18T02:24:50.090Z,2.96
2018-12-18T02:26:50.390Z,2.96
2018-12-18T02:28:50.470Z,2.96
2018-12-18T02:30:50.526Z,2.97
2018-12-18T02:32:50.589Z,2.98
2018-12-18T02:34:50.054Z,2.97
2018-12-18T02:36:50.347Z,2.96
2018-12-18T02:38:50.364Z,2.96
2018-12-18T02:40:50.373Z,2.95
2018-12-18T02:42:50.403Z,2.95
2018-12-18T02:44:50.430Z,2.94
2018-12-18T02:46:49.763Z,2.92
2018-12-18T02:48:49.807Z,2.85
2018-12-18T02:50:49.808Z,2.85
2018-12-18T02:52:49.803Z,2.85
2018-12-18T02:54:49.949Z,2.84
2018-12-18T02:56:50.121Z,2.84
2018-12-18T02:58:50.140Z,2.85
2018-12-18T03:00:50.139Z,2.83
2018-12-18T03:02:50.127Z,2.80
2018-12-18T03:04:50.550Z,2.79
2018-12-18T03:06:49.739Z,2.79
2018-12-18T03:08:49.935Z,2.78
2018-12-18T03:10:49.901Z,2.79
2018-12-18T03:12:49.949Z,2.79
2018-12-18T03:14:49.964Z,2.81
2018-12-18T03:16:50.217Z,2.81
2018-12-18T03:18:50.271Z,2.77
2018-12-18T03:20:50.294Z,2.76
2018-12-18T03:22:50.333Z,2.72
2018-12-18T03:24:50.383Z,2.67
2018-12-18T03:26:49.817Z,2.67
2018-12-18T03:28:49.841Z,2.57
2018-12-18T03:30:49.989Z,2.53
2018-12-18T03:32:50.003Z,2.51
2018-12-18T03:34:50.182Z,2.54
2018-12-18T03:36:50.289Z,2.57
2018-12-18T03:38:50.343Z,2.59
2018-12-18T03:40:50.444Z,2.61
2018-12-18T03:42:50.451Z,2.64
2018-12-18T03:44:50.548Z,2.67
2018-12-18T03:46:49.806Z,2.69
2018-12-18T03:48:49.813Z,2.74
2018-12-18T03:50:49.924Z,2.79
2018-12-18T03:52:49.963Z,2.83
2018-12-18T03:54:49.988Z,2.83
2018-12-18T03:56:50.282Z,2.85
2018-12-18T03:58:50.295Z,2.88
2018-12-18T04:00:50.282Z,2.90
2018-12-18T04:02:50.321Z,2.91
2018-12-18T04:04:49.740Z,2.94
2018-12-18T04:06:49.860Z,2.94
2018-12-18T04:08:49.976Z,2.95
2018-12-18T04:10:50.050Z,2.97
2018-12-18T04:12:50.146Z,2.97
2018-12-18T04:14:50.191Z,2.97
2018-12-18T04:16:50.379Z,2.95
2018-12-18T04:18:50.332Z,2.94
2018-12-18T04:20:50.295Z,2.93
2018-12-18T04:22:50.255Z,2.91
2018-12-18T04:24:50.217Z,2.90
2018-12-18T04:26:50.422Z,2.90
2018-12-18T04:28:50.411Z,2.89
2018-12-18T04:30:50.369Z,2.89
2018-12-18T04:32:50.463Z,2.87
2018-12-18T04:34:49.792Z,2.86
2018-12-18T04:36:49.991Z,2.85
2018-12-18T04:38:50.005Z,2.87
2018-12-18T04:40:50.002Z,2.89
2018-12-18T04:42:50.118Z,2.89
2018-12-18T04:44:50.143Z,2.91
2018-12-18T04:46:50.262Z,2.92
2018-12-18T04:48:50.257Z,2.93
2018-12-18T04:50:50.265Z,2.93
2018-12-18T04:52:50.237Z,2.92
2018-12-18T04:54:50.247Z,2.92
2018-12-18T04:56:50.522Z,2.94
2018-12-18T04:58:50.456Z,2.92
2018-12-18T05:00:50.518Z,2.91
2018-12-18T05:02:50.521Z,2.91
2018-12-18T05:04:50.992Z,2.91
2018-12-18T05:06:50.195Z,2.91
2018-12-18T05:08:50.297Z,2.88
2018-12-18T05:10:50.355Z,2.88
2018-12-18T05:12:50.392Z,2.92
2018-12-18T05:14:50.386Z,2.93
2018-12-18T05:16:50.617Z,2.97
2018-12-18T05:18:49.696Z,2.96
2018-12-18T05:20:49.793Z,2.95
2018-12-18T05:22:49.789Z,2.93
2018-12-18T05:24:49.889Z,2.92
2018-12-18T05:26:50.611Z,2.94
2018-12-18T05:28:49.697Z,2.94
2018-12-18T05:30:49.724Z,2.94
2018-12-18T05:32:49.800Z,2.91
2018-12-18T05:34:56.982Z,2.88
2018-12-18T05:36:50.155Z,2.83
2018-12-18T05:38:50.180Z,2.82
2018-12-18T05:40:50.141Z,2.85
2018-12-18T05:42:50.132Z,2.86
2018-12-18T05:44:50.175Z,2.86
2018-12-18T05:46:50.425Z,2.84
2018-12-18T05:48:50.419Z,2.81
2018-12-18T05:50:50.480Z,2.79
2018-12-18T05:52:50.386Z,2.78
2018-12-18T05:54:50.486Z,2.76
2018-12-18T05:56:49.722Z,2.76
2018-12-18T05:58:49.761Z,2.71
2018-12-18T06:00:50.064Z,2.68
2018-12-18T06:02:50.112Z,2.62
2018-12-18T06:04:50.342Z,2.59
2018-12-18T06:06:50.429Z,2.57
2018-12-18T06:08:50.415Z,2.57
2018-12-18T06:10:50.483Z,2.57
2018-12-18T06:12:50.441Z,2.57
2018-12-18T06:14:50.554Z,2.58
2018-12-18T06:16:49.823Z,2.55
2018-12-18T06:18:49.956Z,2.55
2018-12-18T06:20:49.953Z,2.54
2018-12-18T06:22:49.950Z,2.52
2018-12-18T06:24:49.959Z,2.49
2018-12-18T06:26:50.085Z,2.49
2018-12-18T06:28:50.104Z,2.47
2018-12-18T06:30:50.095Z,2.45
2018-12-18T06:32:50.143Z,2.43
2018-12-18T06:34:50.510Z,2.41
2018-12-18T06:36:50.237Z,2.36
2018-12-18T06:38:50.264Z,2.28
2018-12-18T06:40:50.273Z,2.22
2018-12-18T06:42:50.240Z,2.15
2018-12-18T06:44:50.243Z,2.10
2018-12-18T06:46:50.430Z,2.07
2018-12-18T06:48:50.436Z,2.00
2018-12-18T06:50:50.530Z,1.95
2018-12-18T06:52:50.514Z,1.81
2018-12-18T06:54:50.565Z,1.75
2018-12-18T06:56:49.820Z,1.66
2018-12-18T06:58:49.812Z,1.63
2018-12-18T07:00:49.835Z,1.57
2018-12-18T07:02:50.062Z,1.55
2018-12-18T07:04:50.356Z,1.52
2018-12-18T07:06:50.546Z,1.51
2018-12-18T07:08:50.566Z,1.51
2018-12-18T07:10:50.542Z,1.51
2018-12-18T07:12:50.479Z,1.49
2018-12-18T07:14:50.522Z,1.47
2018-12-18T07:16:49.762Z,1.43
2018-12-18T07:18:49.756Z,1.34
2018-12-18T07:20:49.762Z,1.30
2018-12-18T07:22:49.714Z,1.18
2018-12-18T07:24:49.787Z,1.15
2018-12-18T07:26:50.154Z,1.08
2018-12-18T07:28:50.328Z,1.01
2018-12-18T07:30:50.301Z,0.97
2018-12-18T07:32:50.322Z,0.97
2018-12-18T07:34:50.585Z,0.96
2018-12-18T07:36:49.812Z,0.92
2018-12-18T07:38:49.910Z,0.92
2018-12-18T07:40:49.909Z,0.90
2018-12-18T07:42:49.877Z,0.91
2018-12-18T07:44:49.980Z,0.91
2018-12-18T07:46:50.160Z,0.91
2018-12-18T07:48:50.197Z,0.93
2018-12-18T07:50:50.241Z,1.00
2018-12-18T07:52:50.259Z,1.04
2018-12-18T07:54:50.300Z,1.14
2018-12-18T07:56:50.395Z,1.17
2018-12-18T07:58:50.408Z,1.28
2018-12-18T08:00:50.438Z,1.36
2018-12-18T08:02:50.388Z,1.39
2018-12-18T08:04:49.986Z,1.45
2018-12-18T08:06:50.166Z,1.58
2018-12-18T08:08:50.170Z,1.63
2018-12-18T08:10:50.230Z,1.67
2018-12-18T08:12:50.177Z,1.71
2018-12-18T08:14:50.162Z,1.72
2018-12-18T08:16:50.346Z,1.78
2018-12-18T08:18:50.551Z,1.83
2018-12-18T08:20:50.525Z,2.00
2018-12-18T08:22:49.721Z,2.12
2018-12-18T08:24:49.839Z,2.12
2018-12-18T08:26:50.068Z,2.24
2018-12-18T08:28:50.125Z,2.34
2018-12-18T08:30:50.230Z,2.39
2018-12-18T08:32:50.344Z,2.51
2018-12-18T08:34:49.667Z,2.54
2018-12-18T08:36:49.878Z,2.54
2018-12-18T08:38:49.869Z,2.55
2018-12-18T08:40:49.902Z,2.49
2018-12-18T08:42:49.932Z,2.49
2018-12-18T08:44:49.993Z,2.42
2018-12-18T08:46:50.124Z,2.40
2018-12-18T08:48:50.110Z,2.40
2018-12-18T08:50:50.118Z,2.40
2018-12-18T08:52:50.133Z,2.39
2018-12-18T08:54:50.171Z,2.41
2018-12-18T08:56:50.401Z,2.42
2018-12-18T08:58:50.394Z,2.41
2018-12-18T09:00:50.391Z,2.40
2018-12-18T09:02:50.419Z,2.41
2018-12-18T09:04:49.701Z,2.44
2018-12-18T09:06:49.866Z,2.49
2018-12-18T09:08:49.877Z,2.51
2018-12-18T09:10:49.893Z,2.56
2018-12-18T09:12:49.971Z,2.57
2018-12-18T09:14:49.934Z,2.63
2018-12-18T09:16:50.129Z,2.63
2018-12-18T09:18:50.084Z,2.63
2018-12-18T09:20:50.124Z,2.68
2018-12-18T09:22:50.103Z,2.73
2018-12-18T09:24:50.115Z,2.78
2018-12-18T09:26:50.245Z,2.81
2018-12-18T09:28:50.383Z,2.87
2018-12-18T09:30:50.330Z,2.86
2018-12-18T09:32:50.430Z,2.91
2018-12-18T09:34:49.923Z,2.98
2018-12-18T09:36:50.059Z,3.04
2018-12-18T09:38:49.976Z,3.17
2018-12-18T09:40:50.004Z,3.23
2018-12-18T09:42:50.024Z,3.38
2018-12-18T09:44:49.978Z,3.45
2018-12-18T09:46:51.350Z,3.63
2018-12-18T09:48:50.378Z,3.71
2018-12-18T09:50:50.386Z,3.74
2018-12-18T09:52:50.505Z,3.72
2018-12-18T09:54:50.514Z,3.70
2018-12-18T09:56:49.839Z,3.66
2018-12-18T09:58:49.900Z,3.66
2018-12-18T10:00:49.993Z,3.76
2018-12-18T10:02:50.131Z,3.84
2018-12-18T10:04:50.432Z,3.89
2018-12-18T10:06:50.714Z,3.88
2018-12-18T10:08:49.717Z,3.87
2018-12-18T10:10:49.735Z,3.88
2018-12-18T10:12:49.722Z,3.99
2018-12-18T10:14:50.389Z,4.05
2018-12-18T10:16:50.548Z,4.30
2018-12-18T10:18:50.562Z,4.49
2018-12-18T10:20:50.465Z,4.86
2018-12-18T10:22:50.577Z,5.03
2018-12-18T10:24:50.555Z,5.08
2018-12-18T10:26:49.852Z,5.07
2018-12-18T10:28:49.986Z,5.12
2018-12-18T10:30:49.983Z,5.28
2018-12-18T10:32:50.007Z,5.33
2018-12-18T10:34:50.316Z,5.54
2018-12-18T10:36:50.554Z,5.6
2018-12-18T10:38:50.611Z,5.6
2018-12-18T10:40:50.617Z,5.6
2018-12-18T10:42:50.630Z,5.7
2018-12-18T10:44:49.756Z,5.7
2018-12-18T10:46:50.030Z,5.7
2018-12-18T10:48:49.982Z,5.7
2018-12-18T10:50:49.944Z,5.7
2018-12-18T10:52:49.943Z,5.7
2018-12-18T10:54:49.960Z,5.7
2018-12-18T10:56:50.077Z,5.7
2018-12-18T10:58:50.096Z,5.8
2018-12-18T11:00:50.113Z,5.8
2018-12-18T11:02:50.082Z,5.8
2018-12-18T11:04:50.464Z,5.8
2018-12-18T11:06:49.698Z,5.8
2018-12-18T11:08:49.707Z,5.8
2018-12-18T11:10:49.769Z,5.9
2018-12-18T11:12:49.847Z,5.9
2018-12-18T11:14:49.884Z,5.9
2018-12-18T11:16:50.160Z,5.9
2018-12-18T11:18:50.167Z,6.0
2018-12-18T11:20:50.443Z,6.0
2018-12-18T11:22:50.707Z,6.1
2018-12-18T11:24:49.874Z,6.1
2018-12-18T11:26:50.199Z,6.2
2018-12-18T11:28:50.343Z,6.2
2018-12-18T11:30:50.493Z,6.3
2018-12-18T11:32:50.760Z,6.4
2018-12-18T11:34:50.314Z,6.5
2018-12-18T11:36:50.476Z,6.5
2018-12-18T11:38:50.425Z,6.6
2018-12-18T11:40:50.598Z,6.7
2018-12-18T11:42:50.705Z,6.7
2018-12-18T11:44:49.904Z,6.8
2018-12-18T11:46:50.224Z,6.8
2018-12-18T11:48:50.337Z,6.8
2018-12-18T11:50:50.350Z,6.9
2018-12-18T11:52:50.431Z,6.9
2018-12-18T11:54:50.540Z,7.0
2018-12-18T11:56:49.877Z,7.0
2018-12-18T11:58:50.050Z,7.1
2018-12-18T12:00:50.160Z,7.0
2018-12-18T12:02:50.282Z,7.0
2018-12-18T12:04:49.869Z,7.0
2018-12-18T12:06:50.181Z,7.1
2018-12-18T12:08:50.358Z,7.1
2018-12-18T12:10:50.504Z,7.2
2018-12-18T12:12:50.671Z,7.2
2018-12-18T12:14:50.845Z,7.3
2018-12-18T12:16:50.193Z,7.3
2018-12-18T12:18:50.373Z,7.4
2018-12-18T12:20:50.514Z,7.4
2018-12-18T12:22:50.566Z,7.4
2018-12-18T12:24:50.687Z,7.4
2018-12-18T12:26:49.976Z,7.54
2018-12-18T12:28:49.936Z,7.30
2018-12-18T12:30:49.905Z,6.99
2018-12-18T12:32:49.895Z,6.82
2018-12-18T12:34:50.363Z,6.82
2018-12-18T12:36:50.492Z,6.72
2018-12-18T12:38:50.546Z,6.75
2018-12-18T12:40:50.581Z,6.67
2018-12-18T12:42:50.583Z,6.47
2018-12-18T12:44:50.557Z,6.33
2018-12-18T12:46:49.831Z,6.30
2018-12-18T12:48:49.921Z,6.34
2018-12-18T12:50:49.930Z,6.17
2018-12-18T12:52:49.902Z,6.13
2018-12-18T12:54:49.888Z,6.09
2018-12-18T12:56:50.174Z,6.09
2018-12-18T12:58:50.112Z,5.89
2018-12-18T13:00:50.203Z,5.81
2018-12-18T13:02:50.168Z,5.78
2018-12-18T13:04:50.470Z,5.78
2018-12-18T13:06:49.756Z,5.80
2018-12-18T13:08:49.724Z,5.89
2018-12-18T13:10:50.673Z,5.99
2018-12-18T13:12:50.655Z,6.08
2018-12-18T13:14:49.727Z,6.13
2018-12-18T13:16:50.025Z,6.13
2018-12-18T13:18:50.221Z,6.32
2018-12-18T13:20:50.399Z,6.32
2018-12-18T13:22:50.690Z,7.49
2018-12-18T13:24:50.837Z,7.89
2018-12-18T13:26:50.430Z,7.8
2018-12-18T13:28:50.606Z,7.8
2018-12-18T13:30:50.680Z,7.8
2018-12-18T13:32:49.865Z,7.8
2018-12-18T13:34:50.508Z,7.7
2018-12-18T13:36:49.963Z,7.6
2018-12-18T13:38:50.128Z,7.6
2018-12-18T13:40:50.333Z,7.6
2018-12-18T13:42:50.471Z,7.6
2018-12-18T13:44:50.427Z,7.27
2018-12-18T13:46:50.514Z,6.75
2018-12-18T13:48:50.523Z,6.47
2018-12-18T13:50:50.603Z,6.19
2018-12-18T13:52:50.561Z,6.02
2018-12-18T13:54:50.646Z,5.88
2018-12-18T13:56:49.781Z,5.88
2018-12-18T13:58:49.828Z,5.57
2018-12-18T14:00:49.858Z,5.41
2018-12-18T14:02:49.836Z,5.27
2018-12-18T14:04:50.193Z,5.27
2018-12-18T14:06:50.437Z,5.11
2018-12-18T14:08:50.449Z,5.03
2018-12-18T14:10:50.200Z,4.98
2018-12-18T14:12:50.304Z,4.92
2018-12-18T14:14:50.323Z,4.87
2018-12-18T14:16:50.523Z,4.80
2018-12-18T14:18:50.558Z,4.74
2018-12-18T14:20:50.492Z,4.68
2018-12-18T14:22:50.468Z,4.60
2018-12-18T14:24:50.454Z,4.51
2018-12-18T14:26:49.735Z,4.45
2018-12-18T14:28:49.821Z,4.38
2018-12-18T14:30:49.928Z,4.36
2018-12-18T14:32:49.929Z,4.33
2018-12-18T14:34:50.187Z,4.30
2018-12-18T14:36:56.806Z,4.30
2018-12-18T14:38:49.850Z,4.28
2018-12-18T14:40:49.830Z,4.26
2018-12-18T14:42:49.769Z,4.21
2018-12-18T14:44:49.757Z,4.12
2018-12-18T14:46:49.970Z,4.07
2018-12-18T14:48:49.928Z,3.98
2018-12-18T14:50:49.948Z,3.93
2018-12-18T14:52:49.974Z,3.86
2018-12-18T14:54:50.001Z,3.77
2018-12-18T14:56:50.148Z,3.67
2018-12-18T14:58:50.151Z,3.58
2018-12-18T15:00:50.196Z,3.50
2018-12-18T15:02:50.155Z,3.41
2018-12-18T15:04:50.494Z,3.36
2018-12-18T15:06:50.673Z,3.31
2018-12-18T15:08:49.674Z,3.22
2018-12-18T15:10:50.862Z,3.13
2018-12-18T15:12:49.812Z,3.10
2018-12-18T15:14:49.879Z,3.06
2018-12-18T15:16:50.061Z,3.04
2018-12-18T15:18:50.130Z,3.05
2018-12-18T15:20:50.094Z,3.07
2018-12-18T15:22:50.044Z,3.09
2018-12-18T15:24:49.977Z,3.09
2018-12-18T15:26:50.142Z,3.10
2018-12-18T15:28:50.105Z,3.07
2018-12-18T15:30:50.107Z,3.06
2018-12-18T15:32:50.133Z,3.06
2018-12-18T15:34:50.406Z,3.08
2018-12-18T15:36:50.521Z,3.06
2018-12-18T15:38:50.552Z,3.06
2018-12-18T15:40:50.501Z,3.10
2018-12-18T15:42:50.425Z,3.10
2018-12-18T15:44:50.446Z,3.11
2018-12-18T15:46:49.736Z,3.11
2018-12-18T15:48:49.775Z,3.12
2018-12-18T15:50:49.850Z,3.13
2018-12-18T15:52:49.868Z,3.13
2018-12-18T15:54:49.888Z,3.17
2018-12-18T15:56:50.045Z,3.19
2018-12-18T15:58:50.064Z,3.20
2018-12-18T16:00:50.062Z,3.19
2018-12-18T16:02:50.031Z,3.20
2018-12-18T16:04:50.407Z,3.21
2018-12-18T16:06:50.576Z,3.22
2018-12-18T16:08:50.562Z,3.22
2018-12-18T16:10:50.620Z,3.22
2018-12-18T16:12:50.574Z,3.22
2018-12-18T16:14:50.585Z,3.23
2018-12-18T16:16:49.712Z,3.23
2018-12-18T16:18:49.720Z,3.23
2018-12-18T16:20:49.694Z,3.21
2018-12-18T16:22:50.605Z,3.21
2018-12-18T16:24:50.624Z,3.21
2018-12-18T16:26:49.860Z,3.21
2018-12-18T16:28:49.894Z,3.22
2018-12-18T16:30:49.886Z,3.23
2018-12-18T16:32:49.837Z,3.22
2018-12-18T16:34:50.342Z,3.20
2018-12-18T16:36:50.505Z,3.19
2018-12-18T16:38:50.551Z,3.20
2018-12-18T16:40:50.495Z,3.18
2018-12-18T16:42:50.463Z,3.16
2018-12-18T16:44:50.424Z,3.13
2018-12-18T16:46:50.654Z,3.12
2018-12-18T16:48:50.682Z,3.14
2018-12-18T16:50:49.732Z,3.14
2018-12-18T16:52:49.926Z,3.14
2018-12-18T16:54:49.929Z,3.11
2018-12-18T16:56:50.059Z,3.10
2018-12-18T16:58:50.008Z,3.09
2018-12-18T17:00:50.021Z,3.08
2018-12-18T17:02:50.063Z,3.07
2018-12-18T17:04:50.325Z,3.06
2018-12-18T17:06:50.452Z,3.07
2018-12-18T17:08:50.451Z,3.06
2018-12-18T17:10:50.546Z,3.04
2018-12-18T17:12:50.503Z,3.01
2018-12-18T17:14:50.497Z,3.02
2018-12-18T17:16:49.700Z,3.01
2018-12-18T17:18:49.712Z,3.01
2018-12-18T17:20:49.716Z,3.00
2018-12-18T17:22:49.842Z,2.99
2018-12-18T17:24:49.818Z,2.99
2018-12-18T17:26:50.024Z,2.98
2018-12-18T17:28:50.013Z,2.92
2018-12-18T17:30:50.006Z,2.87
2018-12-18T17:32:49.979Z,2.85
2018-12-18T17:34:50.376Z,2.85
2018-12-18T17:36:50.562Z,2.84
2018-12-18T17:38:50.512Z,2.82
2018-12-18T17:40:50.509Z,2.81
2018-12-18T17:42:50.457Z,2.80
2018-12-18T17:44:50.411Z,2.79
2018-12-18T17:46:50.653Z,2.77
2018-12-18T17:48:50.629Z,2.75
2018-12-18T17:50:50.607Z,2.73
2018-12-18T17:52:49.739Z,2.72
2018-12-18T17:54:49.752Z,2.72
2018-12-18T17:56:49.969Z,2.71
2018-12-18T17:58:49.996Z,2.70
2018-12-18T18:00:49.940Z,2.70
2018-12-18T18:02:49.832Z,2.69
2018-12-18T18:04:50.214Z,2.67
2018-12-18T18:06:50.395Z,2.66
2018-12-18T18:08:50.339Z,2.62
2018-12-18T18:10:50.318Z,2.62
2018-12-18T18:12:50.303Z,2.62
2018-12-18T18:14:50.292Z,2.60
2018-12-18T18:16:50.502Z,2.58
2018-12-18T18:18:50.543Z,2.58
2018-12-18T18:20:50.517Z,2.57
2018-12-18T18:22:50.568Z,2.57
2018-12-18T18:24:50.562Z,2.55
2018-12-18T18:26:49.824Z,2.54
2018-12-18T18:28:49.842Z,2.53
2018-12-18T18:30:49.964Z,2.50
2018-12-18T18:32:49.950Z,2.48
2018-12-18T18:34:50.242Z,2.46
2018-12-18T18:36:50.433Z,2.45
2018-12-18T18:38:50.448Z,2.44
2018-12-18T18:40:50.421Z,2.42
2018-12-18T18:42:50.505Z,2.40
2018-12-18T18:44:50.465Z,2.39
2018-12-18T18:46:49.709Z,2.37
2018-12-18T18:48:49.735Z,2.36
2018-12-18T18:50:49.715Z,2.34
2018-12-18T18:52:49.740Z,2.28
2018-12-18T18:54:49.737Z,2.27
2018-12-18T18:56:49.935Z,2.28
2018-12-18T18:58:49.975Z,2.27
2018-12-18T19:00:49.999Z,2.23
2018-12-18T19:02:50.122Z,2.22
2018-12-18T19:04:50.420Z,2.23
2018-12-18T19:06:50.665Z,2.20
2018-12-18T19:08:50.669Z,2.19
2018-12-18T19:10:50.660Z,2.14
2018-12-18T19:12:49.767Z,2.14
2018-12-18T19:14:49.742Z,2.14
2018-12-18T19:16:50.149Z,2.14
2018-12-18T19:18:50.132Z,2.18
2018-12-18T19:20:50.150Z,2.19
2018-12-18T19:22:50.214Z,2.17
2018-12-18T19:24:50.228Z,2.15
2018-12-18T19:26:50.387Z,2.13
2018-12-18T19:28:50.780Z,2.07
2018-12-18T19:30:49.772Z,2.07
2018-12-18T19:32:49.930Z,2.01
2018-12-18T19:34:50.221Z,2.01
2018-12-18T19:36:50.450Z,1.93
2018-12-18T19:38:50.428Z,1.88
2018-12-18T19:40:50.469Z,1.85
2018-12-18T19:42:50.419Z,1.76
2018-12-18T19:44:50.339Z,1.74
2018-12-18T19:46:50.591Z,1.70
2018-12-18T19:48:50.522Z,1.68
2018-12-18T19:50:50.538Z,1.61
2018-12-18T19:52:50.646Z,1.58
2018-12-18T19:54:50.674Z,1.53
2018-12-18T19:56:49.881Z,1.50
2018-12-18T19:58:49.937Z,1.47
2018-12-18T20:00:49.988Z,1.47
2018-12-18T20:02:50.025Z,1.47
2018-12-18T20:04:50.351Z,1.46
2018-12-18T20:06:50.646Z,1.45
2018-12-18T20:08:49.722Z,1.42
2018-12-18T20:10:49.730Z,1.40
2018-12-18T20:12:49.714Z,1.37
2018-12-18T20:14:49.768Z,1.35
2018-12-18T20:16:49.944Z,1.34
2018-12-18T20:18:49.966Z,1.27
2018-12-18T20:20:50.005Z,1.23
2018-12-18T20:22:50.029Z,1.13
2018-12-18T20:24:50.046Z,1.09
2018-12-18T20:26:50.303Z,0.95
2018-12-18T20:28:50.294Z,0.85
2018-12-18T20:30:50.228Z,0.79
2018-12-18T20:32:50.237Z,0.67
2018-12-18T20:34:49.744Z,0.63
2018-12-18T20:36:50.003Z,0.56
2018-12-18T20:38:49.958Z,0.51
2018-12-18T20:40:50.037Z,0.44
2018-12-18T20:42:50.086Z,0.44
2018-12-18T20:44:50.155Z,0.27
2018-12-18T20:46:50.333Z,0.25
2018-12-18T20:48:50.361Z,0.18
2018-12-18T20:50:50.355Z,0.14
2018-12-18T20:52:50.428Z,0.12
2018-12-18T20:54:50.498Z,0.09
2018-12-18T20:56:50.591Z,0.08
2018-12-18T20:58:49.703Z,0.06
2018-12-18T21:00:49.846Z,0.06
